sensor_id;sensor_type;location;lat;lon;timestamp;P1;durP1;ratioP1;P2;durP2;ratioP2
11771;SDS011;12556;55.748;13.194;2023-06-24T00:02:11;14.70;;;7.80;;
11771;SDS011;12556;55.748;13.194;2023-06-24T00:04:40;12.10;;;8.10;;
11771;SDS011;12556;55.748;13.194;2023-06-24T00:07:06;11.33;;;7.63;;
11771;SDS011;12556;55.748;13.194;2023-06-24T00:09:34;13.30;;;8.67;;
11771;SDS011;12556;55.748;13.194;2023-06-24T00:12:01;13.97;;;7.90;;
11771;SDS011;12556;55.748;13.194;2023-06-24T00:14:28;10.07;;;7.50;;
11771;SDS011;12556;55.748;13.194;2023-06-24T00:16:55;12.20;;;7.50;;
11771;SDS011;12556;55.748;13.194;2023-06-24T00:19:23;9.73;;;7.63;;
11771;SDS011;12556;55.748;13.194;2023-06-24T00:21:52;13.87;;;7.90;;
11771;SDS011;12556;55.748;13.194;2023-06-24T00:24:20;13.60;;;8.23;;
11771;SDS011;12556;55.748;13.194;2023-06-24T00:26:50;14.87;;;8.13;;
11771;SDS011;12556;55.748;13.194;2023-06-24T00:29:18;14.23;;;7.93;;
11771;SDS011;12556;55.748;13.194;2023-06-24T00:31:44;13.63;;;8.53;;
11771;SDS011;12556;55.748;13.194;2023-06-24T00:34:11;11.63;;;8.13;;
11771;SDS011;12556;55.748;13.194;2023-06-24T00:36:38;12.07;;;7.67;;
11771;SDS011;12556;55.748;13.194;2023-06-24T00:39:07;18.53;;;9.10;;
11771;SDS011;12556;55.748;13.194;2023-06-24T00:41:36;10.27;;;8.57;;
11771;SDS011;12556;55.748;13.194;2023-06-24T00:44:03;14.40;;;9.17;;
11771;SDS011;12556;55.748;13.194;2023-06-24T00:46:30;10.93;;;9.30;;
11771;SDS011;12556;55.748;13.194;2023-06-24T00:48:58;15.60;;;10.27;;
11771;SDS011;12556;55.748;13.194;2023-06-24T00:51:25;13.37;;;9.73;;
11771;SDS011;12556;55.748;13.194;2023-06-24T00:53:55;13.47;;;9.70;;
11771;SDS011;12556;55.748;13.194;2023-06-24T00:56:25;14.10;;;10.10;;
11771;SDS011;12556;55.748;13.194;2023-06-24T00:58:55;14.93;;;10.17;;
11771;SDS011;12556;55.748;13.194;2023-06-24T01:01:26;13.33;;;10.10;;
11771;SDS011;12556;55.748;13.194;2023-06-24T01:03:57;13.87;;;9.33;;
11771;SDS011;12556;55.748;13.194;2023-06-24T01:06:24;15.50;;;10.00;;
11771;SDS011;12556;55.748;13.194;2023-06-24T01:08:53;12.57;;;10.03;;
11771;SDS011;12556;55.748;13.194;2023-06-24T01:11:21;13.77;;;10.60;;
11771;SDS011;12556;55.748;13.194;2023-06-24T01:13:49;14.93;;;10.93;;
11771;SDS011;12556;55.748;13.194;2023-06-24T01:16:18;12.53;;;9.70;;
11771;SDS011;12556;55.748;13.194;2023-06-24T01:18:52;13.13;;;9.80;;
11771;SDS011;12556;55.748;13.194;2023-06-24T01:21:28;15.17;;;10.00;;
11771;SDS011;12556;55.748;13.194;2023-06-24T01:24:05;15.53;;;10.10;;
11771;SDS011;12556;55.748;13.194;2023-06-24T01:26:51;13.97;;;10.07;;
11771;SDS011;12556;55.748;13.194;2023-06-24T01:29:47;17.87;;;9.93;;
11771;SDS011;12556;55.748;13.194;2023-06-24T01:32:29;12.63;;;9.90;;
11771;SDS011;12556;55.748;13.194;2023-06-24T01:35:00;15.30;;;10.20;;
11771;SDS011;12556;55.748;13.194;2023-06-24T01:37:32;12.27;;;9.43;;
11771;SDS011;12556;55.748;13.194;2023-06-24T01:40:04;14.20;;;9.23;;
11771;SDS011;12556;55.748;13.194;2023-06-24T01:42:38;13.37;;;9.60;;
11771;SDS011;12556;55.748;13.194;2023-06-24T01:45:06;16.50;;;9.50;;
11771;SDS011;12556;55.748;13.194;2023-06-24T01:47:36;12.13;;;9.53;;
11771;SDS011;12556;55.748;13.194;2023-06-24T01:50:07;11.33;;;9.73;;
11771;SDS011;12556;55.748;13.194;2023-06-24T01:52:37;12.17;;;8.60;;
11771;SDS011;12556;55.748;13.194;2023-06-24T01:55:08;10.93;;;9.23;;
11771;SDS011;12556;55.748;13.194;2023-06-24T01:57:37;13.27;;;9.07;;
11771;SDS011;12556;55.748;13.194;2023-06-24T02:00:08;12.37;;;10.07;;
11771;SDS011;12556;55.748;13.194;2023-06-24T02:02:38;11.93;;;8.27;;
11771;SDS011;12556;55.748;13.194;2023-06-24T02:05:06;12.00;;;9.30;;
11771;SDS011;12556;55.748;13.194;2023-06-24T02:07:36;14.73;;;9.67;;
11771;SDS011;12556;55.748;13.194;2023-06-24T02:10:04;19.93;;;9.87;;
11771;SDS011;12556;55.748;13.194;2023-06-24T02:12:33;13.53;;;9.10;;
11771;SDS011;12556;55.748;13.194;2023-06-24T02:15:01;14.47;;;9.70;;
11771;SDS011;12556;55.748;13.194;2023-06-24T02:17:29;10.23;;;8.73;;
11771;SDS011;12556;55.748;13.194;2023-06-24T02:19:58;13.97;;;9.40;;
11771;SDS011;12556;55.748;13.194;2023-06-24T02:22:26;12.33;;;9.03;;
11771;SDS011;12556;55.748;13.194;2023-06-24T02:24:54;14.13;;;9.67;;
11771;SDS011;12556;55.748;13.194;2023-06-24T02:27:22;12.40;;;10.03;;
11771;SDS011;12556;55.748;13.194;2023-06-24T02:29:49;11.77;;;9.17;;
11771;SDS011;12556;55.748;13.194;2023-06-24T02:32:18;15.40;;;10.37;;
11771;SDS011;12556;55.748;13.194;2023-06-24T02:34:45;14.07;;;9.80;;
11771;SDS011;12556;55.748;13.194;2023-06-24T02:37:13;14.27;;;10.03;;
11771;SDS011;12556;55.748;13.194;2023-06-24T02:39:40;16.93;;;9.77;;
11771;SDS011;12556;55.748;13.194;2023-06-24T02:42:10;12.47;;;9.23;;
11771;SDS011;12556;55.748;13.194;2023-06-24T02:44:37;15.23;;;10.03;;
11771;SDS011;12556;55.748;13.194;2023-06-24T02:47:05;14.20;;;9.40;;
11771;SDS011;12556;55.748;13.194;2023-06-24T02:49:36;10.43;;;9.27;;
11771;SDS011;12556;55.748;13.194;2023-06-24T02:52:05;14.63;;;9.37;;
11771;SDS011;12556;55.748;13.194;2023-06-24T02:54:34;17.50;;;9.50;;
11771;SDS011;12556;55.748;13.194;2023-06-24T02:57:04;13.90;;;10.03;;
11771;SDS011;12556;55.748;13.194;2023-06-24T02:59:32;13.00;;;9.30;;
11771;SDS011;12556;55.748;13.194;2023-06-24T03:01:59;14.33;;;9.40;;
11771;SDS011;12556;55.748;13.194;2023-06-24T03:04:27;13.47;;;9.20;;
11771;SDS011;12556;55.748;13.194;2023-06-24T03:06:54;14.23;;;8.77;;
11771;SDS011;12556;55.748;13.194;2023-06-24T03:09:22;11.37;;;9.07;;
11771;SDS011;12556;55.748;13.194;2023-06-24T03:11:50;13.40;;;9.80;;
11771;SDS011;12556;55.748;13.194;2023-06-24T03:14:18;14.30;;;9.50;;
11771;SDS011;12556;55.748;13.194;2023-06-24T03:16:45;12.20;;;8.97;;
11771;SDS011;12556;55.748;13.194;2023-06-24T03:19:12;13.67;;;9.23;;
11771;SDS011;12556;55.748;13.194;2023-06-24T03:21:39;14.03;;;9.03;;
11771;SDS011;12556;55.748;13.194;2023-06-24T03:24:06;11.80;;;8.97;;
11771;SDS011;12556;55.748;13.194;2023-06-24T03:26:33;11.53;;;9.23;;
11771;SDS011;12556;55.748;13.194;2023-06-24T03:29:02;10.40;;;9.10;;
11771;SDS011;12556;55.748;13.194;2023-06-24T03:31:29;12.87;;;8.73;;
11771;SDS011;12556;55.748;13.194;2023-06-24T03:33:56;15.50;;;10.00;;
11771;SDS011;12556;55.748;13.194;2023-06-24T03:36:23;12.37;;;9.40;;
11771;SDS011;12556;55.748;13.194;2023-06-24T03:38:50;12.30;;;8.97;;
11771;SDS011;12556;55.748;13.194;2023-06-24T03:41:17;9.50;;;7.93;;
11771;SDS011;12556;55.748;13.194;2023-06-24T03:43:44;11.80;;;8.77;;
11771;SDS011;12556;55.748;13.194;2023-06-24T03:46:13;11.33;;;8.63;;
11771;SDS011;12556;55.748;13.194;2023-06-24T03:48:40;11.90;;;8.90;;
11771;SDS011;12556;55.748;13.194;2023-06-24T03:51:07;12.77;;;8.27;;
11771;SDS011;12556;55.748;13.194;2023-06-24T03:53:34;12.33;;;9.00;;
11771;SDS011;12556;55.748;13.194;2023-06-24T03:56:01;13.00;;;8.93;;
11771;SDS011;12556;55.748;13.194;2023-06-24T03:58:28;10.00;;;8.03;;
11771;SDS011;12556;55.748;13.194;2023-06-24T04:00:55;10.87;;;8.00;;
11771;SDS011;12556;55.748;13.194;2023-06-24T04:03:25;10.53;;;8.23;;
11771;SDS011;12556;55.748;13.194;2023-06-24T04:05:53;11.50;;;9.07;;
11771;SDS011;12556;55.748;13.194;2023-06-24T04:08:20;10.33;;;8.83;;
11771;SDS011;12556;55.748;13.194;2023-06-24T04:10:47;12.40;;;8.60;;
11771;SDS011;12556;55.748;13.194;2023-06-24T04:13:14;9.77;;;8.30;;
11771;SDS011;12556;55.748;13.194;2023-06-24T04:15:41;9.90;;;7.30;;
11771;SDS011;12556;55.748;13.194;2023-06-24T04:18:08;9.27;;;8.37;;
11771;SDS011;12556;55.748;13.194;2023-06-24T04:20:36;11.33;;;8.23;;
11771;SDS011;12556;55.748;13.194;2023-06-24T04:23:03;9.77;;;7.93;;
11771;SDS011;12556;55.748;13.194;2023-06-24T04:25:31;10.03;;;8.73;;
11771;SDS011;12556;55.748;13.194;2023-06-24T04:27:57;11.40;;;8.13;;
11771;SDS011;12556;55.748;13.194;2023-06-24T04:30:24;10.50;;;7.93;;
11771;SDS011;12556;55.748;13.194;2023-06-24T04:32:51;11.50;;;8.53;;
11771;SDS011;12556;55.748;13.194;2023-06-24T04:35:18;9.73;;;8.70;;
11771;SDS011;12556;55.748;13.194;2023-06-24T04:37:46;8.03;;;7.03;;
11771;SDS011;12556;55.748;13.194;2023-06-24T04:40:15;11.80;;;8.03;;
11771;SDS011;12556;55.748;13.194;2023-06-24T04:42:42;9.50;;;7.47;;
11771;SDS011;12556;55.748;13.194;2023-06-24T04:45:09;10.03;;;7.23;;
11771;SDS011;12556;55.748;13.194;2023-06-24T04:47:36;9.13;;;7.27;;
11771;SDS011;12556;55.748;13.194;2023-06-24T04:50:04;10.20;;;6.90;;
11771;SDS011;12556;55.748;13.194;2023-06-24T04:52:31;8.23;;;7.27;;
11771;SDS011;12556;55.748;13.194;2023-06-24T04:55:00;10.90;;;7.33;;
11771;SDS011;12556;55.748;13.194;2023-06-24T04:57:27;9.73;;;7.03;;
11771;SDS011;12556;55.748;13.194;2023-06-24T04:59:55;6.30;;;5.70;;
11771;SDS011;12556;55.748;13.194;2023-06-24T05:02:23;8.03;;;6.27;;
11771;SDS011;12556;55.748;13.194;2023-06-24T05:04:51;9.33;;;6.47;;
11771;SDS011;12556;55.748;13.194;2023-06-24T05:07:18;9.00;;;6.50;;
11771;SDS011;12556;55.748;13.194;2023-06-24T05:09:46;8.97;;;6.97;;
11771;SDS011;12556;55.748;13.194;2023-06-24T05:12:15;9.90;;;7.00;;
11771;SDS011;12556;55.748;13.194;2023-06-24T05:14:42;8.67;;;6.37;;
11771;SDS011;12556;55.748;13.194;2023-06-24T05:17:12;8.60;;;6.67;;
11771;SDS011;12556;55.748;13.194;2023-06-24T05:19:38;9.43;;;6.10;;
11771;SDS011;12556;55.748;13.194;2023-06-24T05:22:06;9.73;;;6.87;;
11771;SDS011;12556;55.748;13.194;2023-06-24T05:24:33;8.90;;;6.70;;
11771;SDS011;12556;55.748;13.194;2023-06-24T05:27:03;8.70;;;6.77;;
11771;SDS011;12556;55.748;13.194;2023-06-24T05:29:32;10.07;;;6.77;;
11771;SDS011;12556;55.748;13.194;2023-06-24T05:32:00;8.97;;;6.30;;
11771;SDS011;12556;55.748;13.194;2023-06-24T05:34:28;8.37;;;5.60;;
11771;SDS011;12556;55.748;13.194;2023-06-24T05:36:55;7.60;;;5.67;;
11771;SDS011;12556;55.748;13.194;2023-06-24T05:39:23;6.43;;;5.57;;
11771;SDS011;12556;55.748;13.194;2023-06-24T05:41:50;7.53;;;5.57;;
11771;SDS011;12556;55.748;13.194;2023-06-24T05:44:17;8.63;;;5.43;;
11771;SDS011;12556;55.748;13.194;2023-06-24T05:46:45;6.93;;;5.10;;
11771;SDS011;12556;55.748;13.194;2023-06-24T05:49:12;7.93;;;4.83;;
11771;SDS011;12556;55.748;13.194;2023-06-24T05:51:39;7.30;;;5.70;;
11771;SDS011;12556;55.748;13.194;2023-06-24T05:54:06;8.53;;;5.83;;
11771;SDS011;12556;55.748;13.194;2023-06-24T05:56:33;6.67;;;5.77;;
11771;SDS011;12556;55.748;13.194;2023-06-24T05:59:01;7.67;;;5.87;;
11771;SDS011;12556;55.748;13.194;2023-06-24T06:01:28;7.70;;;5.80;;
11771;SDS011;12556;55.748;13.194;2023-06-24T06:03:56;7.33;;;5.43;;
11771;SDS011;12556;55.748;13.194;2023-06-24T06:06:23;6.07;;;5.40;;
11771;SDS011;12556;55.748;13.194;2023-06-24T06:08:50;7.83;;;5.60;;
11771;SDS011;12556;55.748;13.194;2023-06-24T06:11:17;8.00;;;5.53;;
11771;SDS011;12556;55.748;13.194;2023-06-24T06:13:44;6.10;;;5.30;;
11771;SDS011;12556;55.748;13.194;2023-06-24T06:16:11;6.00;;;4.80;;
11771;SDS011;12556;55.748;13.194;2023-06-24T06:18:37;7.00;;;5.00;;
11771;SDS011;12556;55.748;13.194;2023-06-24T06:21:06;6.07;;;4.87;;
11771;SDS011;12556;55.748;13.194;2023-06-24T06:23:33;8.70;;;5.10;;
11771;SDS011;12556;55.748;13.194;2023-06-24T06:26:00;5.67;;;5.10;;
11771;SDS011;12556;55.748;13.194;2023-06-24T06:28:27;8.07;;;5.20;;
11771;SDS011;12556;55.748;13.194;2023-06-24T06:30:54;8.90;;;5.77;;
11771;SDS011;12556;55.748;13.194;2023-06-24T06:33:22;5.30;;;4.80;;
11771;SDS011;12556;55.748;13.194;2023-06-24T06:35:48;9.43;;;5.50;;
11771;SDS011;12556;55.748;13.194;2023-06-24T06:38:17;5.50;;;4.83;;
11771;SDS011;12556;55.748;13.194;2023-06-24T06:40:43;6.73;;;5.10;;
11771;SDS011;12556;55.748;13.194;2023-06-24T06:43:13;7.73;;;5.20;;
11771;SDS011;12556;55.748;13.194;2023-06-24T06:45:40;5.87;;;4.73;;
11771;SDS011;12556;55.748;13.194;2023-06-24T06:48:07;5.53;;;4.87;;
11771;SDS011;12556;55.748;13.194;2023-06-24T06:50:34;7.97;;;4.97;;
11771;SDS011;12556;55.748;13.194;2023-06-24T06:53:01;6.67;;;4.67;;
11771;SDS011;12556;55.748;13.194;2023-06-24T06:55:29;7.73;;;5.10;;
11771;SDS011;12556;55.748;13.194;2023-06-24T06:57:56;6.37;;;5.00;;
11771;SDS011;12556;55.748;13.194;2023-06-24T07:00:23;7.53;;;4.93;;
11771;SDS011;12556;55.748;13.194;2023-06-24T07:02:50;7.43;;;5.07;;
11771;SDS011;12556;55.748;13.194;2023-06-24T07:05:16;8.10;;;5.10;;
11771;SDS011;12556;55.748;13.194;2023-06-24T07:07:43;6.33;;;4.37;;
11771;SDS011;12556;55.748;13.194;2023-06-24T07:10:10;8.17;;;4.57;;
11771;SDS011;12556;55.748;13.194;2023-06-24T07:12:39;5.82;;;4.72;;
11771;SDS011;12556;55.748;13.194;2023-06-24T07:15:07;7.68;;;5.03;;
11771;SDS011;12556;55.748;13.194;2023-06-24T07:17:34;6.47;;;5.13;;
11771;SDS011;12556;55.748;13.194;2023-06-24T07:20:01;6.55;;;5.05;;
11771;SDS011;12556;55.748;13.194;2023-06-24T07:22:28;5.55;;;5.05;;
11771;SDS011;12556;55.748;13.194;2023-06-24T07:24:55;6.60;;;4.82;;
11771;SDS011;12556;55.748;13.194;2023-06-24T07:27:22;4.93;;;4.43;;
11771;SDS011;12556;55.748;13.194;2023-06-24T07:29:51;6.07;;;4.68;;
11771;SDS011;12556;55.748;13.194;2023-06-24T07:32:17;5.90;;;4.50;;
11771;SDS011;12556;55.748;13.194;2023-06-24T07:34:44;7.70;;;4.75;;
11771;SDS011;12556;55.748;13.194;2023-06-24T07:37:11;6.22;;;3.70;;
11771;SDS011;12556;55.748;13.194;2023-06-24T07:39:38;6.15;;;4.47;;
11771;SDS011;12556;55.748;13.194;2023-06-24T07:42:05;7.22;;;4.93;;
11771;SDS011;12556;55.748;13.194;2023-06-24T07:44:33;6.55;;;4.15;;
11771;SDS011;12556;55.748;13.194;2023-06-24T07:47:03;6.53;;;4.68;;
11771;SDS011;12556;55.748;13.194;2023-06-24T07:49:30;5.82;;;4.32;;
11771;SDS011;12556;55.748;13.194;2023-06-24T07:51:56;4.72;;;4.30;;
11771;SDS011;12556;55.748;13.194;2023-06-24T07:54:23;7.30;;;4.45;;
11771;SDS011;12556;55.748;13.194;2023-06-24T07:56:50;6.00;;;4.82;;
11771;SDS011;12556;55.748;13.194;2023-06-24T07:59:17;6.32;;;4.55;;
11771;SDS011;12556;55.748;13.194;2023-06-24T08:01:44;5.85;;;3.97;;
11771;SDS011;12556;55.748;13.194;2023-06-24T08:04:12;4.72;;;4.18;;
11771;SDS011;12556;55.748;13.194;2023-06-24T08:06:39;5.63;;;4.38;;
11771;SDS011;12556;55.748;13.194;2023-06-24T08:09:06;6.18;;;4.50;;
11771;SDS011;12556;55.748;13.194;2023-06-24T08:11:33;5.53;;;4.32;;
11771;SDS011;12556;55.748;13.194;2023-06-24T08:14:00;5.75;;;4.28;;
11771;SDS011;12556;55.748;13.194;2023-06-24T08:16:28;5.28;;;4.50;;
11771;SDS011;12556;55.748;13.194;2023-06-24T08:18:55;6.97;;;5.05;;
11771;SDS011;12556;55.748;13.194;2023-06-24T08:21:23;6.88;;;4.15;;
11771;SDS011;12556;55.748;13.194;2023-06-24T08:23:50;5.75;;;4.90;;
11771;SDS011;12556;55.748;13.194;2023-06-24T08:26:17;4.95;;;4.45;;
11771;SDS011;12556;55.748;13.194;2023-06-24T08:28:46;8.20;;;4.97;;
11771;SDS011;12556;55.748;13.194;2023-06-24T08:31:13;6.70;;;4.40;;
11771;SDS011;12556;55.748;13.194;2023-06-24T08:33:41;5.18;;;4.68;;
11771;SDS011;12556;55.748;13.194;2023-06-24T08:36:09;5.90;;;4.20;;
11771;SDS011;12556;55.748;13.194;2023-06-24T08:38:38;7.05;;;4.65;;
11771;SDS011;12556;55.748;13.194;2023-06-24T08:41:04;4.90;;;4.40;;
11771;SDS011;12556;55.748;13.194;2023-06-24T08:43:31;5.63;;;4.40;;
11771;SDS011;12556;55.748;13.194;2023-06-24T08:45:59;6.53;;;4.97;;
11771;SDS011;12556;55.748;13.194;2023-06-24T08:48:25;7.65;;;4.55;;
11771;SDS011;12556;55.748;13.194;2023-06-24T08:50:56;5.82;;;4.90;;
11771;SDS011;12556;55.748;13.194;2023-06-24T08:53:26;4.97;;;4.47;;
11771;SDS011;12556;55.748;13.194;2023-06-24T08:55:55;5.72;;;4.68;;
11771;SDS011;12556;55.748;13.194;2023-06-24T08:58:23;5.25;;;4.60;;
11771;SDS011;12556;55.748;13.194;2023-06-24T09:00:50;7.28;;;4.57;;
11771;SDS011;12556;55.748;13.194;2023-06-24T09:03:17;5.97;;;5.07;;
11771;SDS011;12556;55.748;13.194;2023-06-24T09:05:44;5.22;;;3.90;;
11771;SDS011;12556;55.748;13.194;2023-06-24T09:08:11;6.22;;;4.60;;
11771;SDS011;12556;55.748;13.194;2023-06-24T09:10:38;4.88;;;4.18;;
11771;SDS011;12556;55.748;13.194;2023-06-24T09:13:06;5.68;;;4.88;;
11771;SDS011;12556;55.748;13.194;2023-06-24T09:15:34;5.03;;;4.53;;
11771;SDS011;12556;55.748;13.194;2023-06-24T09:18:02;5.30;;;4.50;;
11771;SDS011;12556;55.748;13.194;2023-06-24T09:20:30;5.30;;;4.80;;
11771;SDS011;12556;55.748;13.194;2023-06-24T09:22:58;5.47;;;4.53;;
11771;SDS011;12556;55.748;13.194;2023-06-24T09:25:26;6.20;;;4.07;;
11771;SDS011;12556;55.748;13.194;2023-06-24T09:27:53;4.30;;;3.85;;
11771;SDS011;12556;55.748;13.194;2023-06-24T09:30:22;5.30;;;4.20;;
11771;SDS011;12556;55.748;13.194;2023-06-24T09:32:50;4.80;;;4.40;;
11771;SDS011;12556;55.748;13.194;2023-06-24T09:35:18;5.22;;;4.68;;
11771;SDS011;12556;55.748;13.194;2023-06-24T09:37:49;4.72;;;4.28;;
11771;SDS011;12556;55.748;13.194;2023-06-24T09:40:17;6.72;;;4.38;;
11771;SDS011;12556;55.748;13.194;2023-06-24T09:42:48;6.72;;;4.32;;
11771;SDS011;12556;55.748;13.194;2023-06-24T09:45:25;4.65;;;3.85;;
11771;SDS011;12556;55.748;13.194;2023-06-24T09:47:53;4.30;;;3.92;;
11771;SDS011;12556;55.748;13.194;2023-06-24T09:50:21;4.47;;;3.70;;
11771;SDS011;12556;55.748;13.194;2023-06-24T09:52:48;5.00;;;4.50;;
11771;SDS011;12556;55.748;13.194;2023-06-24T09:55:17;4.55;;;3.83;;
11771;SDS011;12556;55.748;13.194;2023-06-24T09:57:45;4.65;;;4.25;;
11771;SDS011;12556;55.748;13.194;2023-06-24T10:00:14;5.57;;;4.00;;
11771;SDS011;12556;55.748;13.194;2023-06-24T10:02:43;4.53;;;3.88;;
11771;SDS011;12556;55.748;13.194;2023-06-24T10:05:11;8.68;;;4.35;;
11771;SDS011;12556;55.748;13.194;2023-06-24T10:07:39;4.15;;;3.72;;
11771;SDS011;12556;55.748;13.194;2023-06-24T10:10:07;4.45;;;3.83;;
11771;SDS011;12556;55.748;13.194;2023-06-24T10:12:35;4.30;;;3.63;;
11771;SDS011;12556;55.748;13.194;2023-06-24T10:15:02;6.30;;;4.03;;
11771;SDS011;12556;55.748;13.194;2023-06-24T10:17:30;4.25;;;3.85;;
11771;SDS011;12556;55.748;13.194;2023-06-24T10:19:58;4.35;;;3.50;;
11771;SDS011;12556;55.748;13.194;2023-06-24T10:22:31;4.72;;;3.88;;
11771;SDS011;12556;55.748;13.194;2023-06-24T10:24:59;5.80;;;3.90;;
11771;SDS011;12556;55.748;13.194;2023-06-24T10:27:27;3.65;;;3.35;;
11771;SDS011;12556;55.748;13.194;2023-06-24T10:29:58;5.00;;;3.83;;
11771;SDS011;12556;55.748;13.194;2023-06-24T10:32:38;6.35;;;3.58;;
11771;SDS011;12556;55.748;13.194;2023-06-24T10:35:08;4.15;;;3.75;;
11771;SDS011;12556;55.748;13.194;2023-06-24T10:37:53;5.72;;;3.63;;
11771;SDS011;12556;55.748;13.194;2023-06-24T10:40:33;4.45;;;3.20;;
11771;SDS011;12556;55.748;13.194;2023-06-24T10:43:01;4.38;;;3.97;;
11771;SDS011;12556;55.748;13.194;2023-06-24T10:45:29;5.40;;;3.22;;
11771;SDS011;12556;55.748;13.194;2023-06-24T10:47:56;4.88;;;3.75;;
11771;SDS011;12556;55.748;13.194;2023-06-24T10:50:26;4.07;;;3.50;;
11771;SDS011;12556;55.748;13.194;2023-06-24T10:52:53;3.80;;;3.42;;
11771;SDS011;12556;55.748;13.194;2023-06-24T10:55:22;5.15;;;3.58;;
11771;SDS011;12556;55.748;13.194;2023-06-24T10:57:50;4.40;;;3.88;;
11771;SDS011;12556;55.748;13.194;2023-06-24T11:00:17;4.18;;;3.50;;
11771;SDS011;12556;55.748;13.194;2023-06-24T11:02:46;3.97;;;3.60;;
11771;SDS011;12556;55.748;13.194;2023-06-24T11:05:13;4.05;;;3.65;;
11771;SDS011;12556;55.748;13.194;2023-06-24T11:07:41;3.70;;;3.35;;
11771;SDS011;12556;55.748;13.194;2023-06-24T11:10:09;6.95;;;3.55;;
11771;SDS011;12556;55.748;13.194;2023-06-24T11:12:38;4.55;;;3.88;;
11771;SDS011;12556;55.748;13.194;2023-06-24T11:15:06;3.55;;;3.25;;
11771;SDS011;12556;55.748;13.194;2023-06-24T11:17:35;4.25;;;3.17;;
11771;SDS011;12556;55.748;13.194;2023-06-24T11:20:06;5.38;;;3.53;;
11771;SDS011;12556;55.748;13.194;2023-06-24T11:22:33;3.25;;;2.95;;
11771;SDS011;12556;55.748;13.194;2023-06-24T11:25:02;3.95;;;3.35;;
11771;SDS011;12556;55.748;13.194;2023-06-24T11:27:30;4.68;;;3.30;;
11771;SDS011;12556;55.748;13.194;2023-06-24T11:29:58;6.78;;;3.92;;
11771;SDS011;12556;55.748;13.194;2023-06-24T11:32:34;4.45;;;3.00;;
11771;SDS011;12556;55.748;13.194;2023-06-24T11:35:03;3.70;;;3.20;;
11771;SDS011;12556;55.748;13.194;2023-06-24T11:37:31;3.67;;;2.97;;
11771;SDS011;12556;55.748;13.194;2023-06-24T11:40:03;4.75;;;2.95;;
11771;SDS011;12556;55.748;13.194;2023-06-24T11:42:31;3.20;;;2.60;;
11771;SDS011;12556;55.748;13.194;2023-06-24T11:44:59;3.00;;;2.67;;
11771;SDS011;12556;55.748;13.194;2023-06-24T11:47:27;3.00;;;2.25;;
11771;SDS011;12556;55.748;13.194;2023-06-24T11:49:58;5.43;;;2.92;;
11771;SDS011;12556;55.748;13.194;2023-06-24T11:52:40;2.42;;;2.20;;
11771;SDS011;12556;55.748;13.194;2023-06-24T11:55:15;3.35;;;2.55;;
11771;SDS011;12556;55.748;13.194;2023-06-24T11:57:47;3.20;;;2.28;;
11771;SDS011;12556;55.748;13.194;2023-06-24T12:00:16;3.85;;;2.55;;
11771;SDS011;12556;55.748;13.194;2023-06-24T12:02:45;3.53;;;2.30;;
11771;SDS011;12556;55.748;13.194;2023-06-24T12:05:12;2.45;;;2.25;;
11771;SDS011;12556;55.748;13.194;2023-06-24T12:07:38;3.13;;;2.83;;
11771;SDS011;12556;55.748;13.194;2023-06-24T12:10:07;2.72;;;2.38;;
11771;SDS011;12556;55.748;13.194;2023-06-24T12:12:36;3.00;;;2.50;;
11771;SDS011;12556;55.748;13.194;2023-06-24T12:15:03;2.67;;;2.30;;
11771;SDS011;12556;55.748;13.194;2023-06-24T12:17:31;2.65;;;2.25;;
11771;SDS011;12556;55.748;13.194;2023-06-24T12:19:58;2.67;;;2.40;;
11771;SDS011;12556;55.748;13.194;2023-06-24T12:22:24;2.70;;;2.33;;
11771;SDS011;12556;55.748;13.194;2023-06-24T12:24:52;5.43;;;2.58;;
11771;SDS011;12556;55.748;13.194;2023-06-24T12:27:19;3.30;;;1.95;;
11771;SDS011;12556;55.748;13.194;2023-06-24T12:29:48;3.60;;;2.42;;
11771;SDS011;12556;55.748;13.194;2023-06-24T12:32:14;3.75;;;2.38;;
11771;SDS011;12556;55.748;13.194;2023-06-24T12:34:41;3.22;;;2.60;;
11771;SDS011;12556;55.748;13.194;2023-06-24T12:37:08;6.45;;;2.25;;
11771;SDS011;12556;55.748;13.194;2023-06-24T12:39:35;2.17;;;1.98;;
11771;SDS011;12556;55.748;13.194;2023-06-24T12:42:02;4.72;;;2.10;;
11771;SDS011;12556;55.748;13.194;2023-06-24T12:44:31;2.63;;;2.08;;
11771;SDS011;12556;55.748;13.194;2023-06-24T12:46:59;3.45;;;2.45;;
11771;SDS011;12556;55.748;13.194;2023-06-24T12:49:26;3.40;;;2.20;;
11771;SDS011;12556;55.748;13.194;2023-06-24T12:51:52;2.15;;;2.00;;
11771;SDS011;12556;55.748;13.194;2023-06-24T12:54:19;2.90;;;2.20;;
11771;SDS011;12556;55.748;13.194;2023-06-24T12:56:46;4.80;;;2.58;;
11771;SDS011;12556;55.748;13.194;2023-06-24T12:59:13;2.38;;;2.00;;
11771;SDS011;12556;55.748;13.194;2023-06-24T13:01:40;3.05;;;2.65;;
11771;SDS011;12556;55.748;13.194;2023-06-24T13:04:11;2.33;;;2.13;;
11771;SDS011;12556;55.748;13.194;2023-06-24T13:06:38;3.40;;;2.28;;
11771;SDS011;12556;55.748;13.194;2023-06-24T13:09:04;3.33;;;2.20;;
11771;SDS011;12556;55.748;13.194;2023-06-24T13:11:32;2.65;;;2.35;;
11771;SDS011;12556;55.748;13.194;2023-06-24T13:13:59;2.50;;;1.80;;
11771;SDS011;12556;55.748;13.194;2023-06-24T13:16:26;3.42;;;1.90;;
11771;SDS011;12556;55.748;13.194;2023-06-24T13:18:53;2.65;;;1.90;;
11771;SDS011;12556;55.748;13.194;2023-06-24T13:21:21;2.97;;;1.88;;
11771;SDS011;12556;55.748;13.194;2023-06-24T13:23:48;4.05;;;2.50;;
11771;SDS011;12556;55.748;13.194;2023-06-24T13:26:15;2.30;;;2.08;;
11771;SDS011;12556;55.748;13.194;2023-06-24T13:28:42;2.63;;;1.88;;
11771;SDS011;12556;55.748;13.194;2023-06-24T13:31:09;2.53;;;2.33;;
11771;SDS011;12556;55.748;13.194;2023-06-24T13:33:36;2.92;;;2.20;;
11771;SDS011;12556;55.748;13.194;2023-06-24T13:36:03;2.35;;;2.15;;
11771;SDS011;12556;55.748;13.194;2023-06-24T13:38:34;2.13;;;1.90;;
11771;SDS011;12556;55.748;13.194;2023-06-24T13:41:01;3.45;;;2.10;;
11771;SDS011;12556;55.748;13.194;2023-06-24T13:43:28;2.92;;;2.30;;
11771;SDS011;12556;55.748;13.194;2023-06-24T13:45:55;2.50;;;2.05;;
11771;SDS011;12556;55.748;13.194;2023-06-24T13:48:23;2.40;;;2.20;;
11771;SDS011;12556;55.748;13.194;2023-06-24T13:50:49;3.08;;;2.42;;
11771;SDS011;12556;55.748;13.194;2023-06-24T13:53:16;2.20;;;1.95;;
11771;SDS011;12556;55.748;13.194;2023-06-24T13:55:44;4.05;;;2.13;;
11771;SDS011;12556;55.748;13.194;2023-06-24T13:58:11;3.60;;;2.35;;
11771;SDS011;12556;55.748;13.194;2023-06-24T14:00:38;2.95;;;2.00;;
11771;SDS011;12556;55.748;13.194;2023-06-24T14:03:05;3.33;;;2.40;;
11771;SDS011;12556;55.748;13.194;2023-06-24T14:05:32;2.50;;;2.30;;
11771;SDS011;12556;55.748;13.194;2023-06-24T14:07:59;2.95;;;2.10;;
11771;SDS011;12556;55.748;13.194;2023-06-24T14:10:26;2.55;;;2.25;;
11771;SDS011;12556;55.748;13.194;2023-06-24T14:12:54;2.05;;;1.85;;
11771;SDS011;12556;55.748;13.194;2023-06-24T14:15:21;2.58;;;2.22;;
11771;SDS011;12556;55.748;13.194;2023-06-24T14:17:48;1.80;;;1.70;;
11771;SDS011;12556;55.748;13.194;2023-06-24T14:20:15;3.88;;;2.30;;
11771;SDS011;12556;55.748;13.194;2023-06-24T14:22:42;3.47;;;2.13;;
11771;SDS011;12556;55.748;13.194;2023-06-24T14:25:09;2.40;;;2.20;;
11771;SDS011;12556;55.748;13.194;2023-06-24T14:27:36;4.90;;;2.38;;
11771;SDS011;12556;55.748;13.194;2023-06-24T14:30:05;3.35;;;2.00;;
11771;SDS011;12556;55.748;13.194;2023-06-24T14:32:33;2.30;;;2.10;;
11771;SDS011;12556;55.748;13.194;2023-06-24T14:35:00;2.95;;;2.20;;
11771;SDS011;12556;55.748;13.194;2023-06-24T14:37:27;3.25;;;2.03;;